createdAt,value
2022-11-06T00:00:31.892Z,76.12
2022-11-06T00:03:34.882Z,76.46
2022-11-06T00:06:49.998Z,76.26
2022-11-06T00:09:52.542Z,76.68
2022-11-06T00:12:56.229Z,76.29
2022-11-06T00:16:03.504Z,76.48
2022-11-06T00:19:06.370Z,76.63
2022-11-06T00:22:10.273Z,76.63
2022-11-06T00:25:13.474Z,76.82
2022-11-06T00:28:16.122Z,77.09
2022-11-06T00:31:20.582Z,76.66
2022-11-06T00:34:23.260Z,77.19
2022-11-06T00:37:27.137Z,76.99
2022-11-06T00:40:29.826Z,77.84
2022-11-06T00:43:33.067Z,77.19
2022-11-06T00:46:35.859Z,77.31
2022-11-06T00:49:38.650Z,77.19
2022-11-06T00:52:42.738Z,77.51
2022-11-06T00:55:45.483Z,77.06
2022-11-06T00:58:49.159Z,76.81
2022-11-06T01:01:52.154Z,77.04
2022-11-06T01:04:54.826Z,77.50
2022-11-06T01:07:58.887Z,77.00
2022-11-06T01:11:07.337Z,77.38
2022-11-06T01:14:12.815Z,77.28
2022-11-06T01:17:15.627Z,76.89
2022-11-06T01:20:18.206Z,77.43
2022-11-06T01:23:23.851Z,77.30
2022-11-06T01:26:37.612Z,77.20
2022-11-06T01:29:41.294Z,76.88
2022-11-06T01:32:44.016Z,77.12
2022-11-06T01:35:46.769Z,77.53
2022-11-06T01:38:53.524Z,77.37
2022-11-06T01:41:56.169Z,77.40
2022-11-06T01:45:26.156Z,77.70
2022-11-06T01:48:29.471Z,77.85
2022-11-06T01:51:35.346Z,78.42
2022-11-06T01:54:43.379Z,78.07
2022-11-06T01:57:46.925Z,77.71
2022-11-06T02:00:51.094Z,77.29
2022-11-06T02:04:00.729Z,77.25
2022-11-06T02:07:04.226Z,77.06
2022-11-06T02:10:09.456Z,76.58
2022-11-06T02:13:22.474Z,76.75
2022-11-06T02:16:31.109Z,77.10
2022-11-06T02:19:51.806Z,76.85
2022-11-06T02:23:11.704Z,75.39
2022-11-06T02:26:28.763Z,75.55
2022-11-06T02:29:39.350Z,76.41
2022-11-06T02:32:47.037Z,75.77
2022-11-06T02:35:54.741Z,76.31
2022-11-06T02:39:02.012Z,76.21
2022-11-06T02:42:06.419Z,77.21
2022-11-06T02:45:13.701Z,76.25
2022-11-06T02:48:21.110Z,76.37
2022-11-06T02:51:28.579Z,76.75
2022-11-06T02:54:35.427Z,76.57
2022-11-06T02:57:43.514Z,76.84
2022-11-06T03:00:54.944Z,77.26
2022-11-06T03:04:01.838Z,76.82
2022-11-06T03:07:09.967Z,76.17
2022-11-06T03:10:13.651Z,76.57
2022-11-06T03:13:20.417Z,76.83
2022-11-06T03:16:31.606Z,76.90
2022-11-06T03:19:38.201Z,77.14
2022-11-06T03:22:47.665Z,76.73
2022-11-06T03:25:56.615Z,76.30
2022-11-06T03:29:06.947Z,77.26
2022-11-06T03:32:16.661Z,75.98
2022-11-06T03:35:24.610Z,76.78
2022-11-06T03:38:32.163Z,77.21
2022-11-06T03:41:39.883Z,77.17
2022-11-06T03:44:46.657Z,77.40
2022-11-06T03:47:54.923Z,77.85
2022-11-06T03:51:04.538Z,77.09
2022-11-06T03:54:12.673Z,77.05
2022-11-06T03:57:20.038Z,77.56
2022-11-06T04:00:22.882Z,77.74
2022-11-06T04:03:32.377Z,77.50
2022-11-06T04:06:38.958Z,77.93
2022-11-06T04:10:04.698Z,77.48
2022-11-06T04:13:25.066Z,77.48
2022-11-06T04:16:32.780Z,77.07
2022-11-06T04:19:36.681Z,76.42
2022-11-06T04:22:46.863Z,77.34
2022-11-06T04:26:20.943Z,77.55
2022-11-06T04:29:41.027Z,77.03
2022-11-06T04:33:05.497Z,77.40
2022-11-06T04:36:18.821Z,76.99
2022-11-06T04:39:28.238Z,77.10
2022-11-06T04:42:37.185Z,78.19
2022-11-06T04:45:43.186Z,76.67
2022-11-06T04:48:47.776Z,77.36
2022-11-06T04:51:52.650Z,76.61
2022-11-06T04:54:57.463Z,76.98
2022-11-06T04:58:00.122Z,76.91
2022-11-06T05:01:02.878Z,78.10
2022-11-06T05:04:06.621Z,77.74
2022-11-06T05:07:13.792Z,77.90
2022-11-06T05:10:16.345Z,78.34
2022-11-06T05:13:19.031Z,78.54
2022-11-06T05:16:21.623Z,78.41
2022-11-06T05:19:24.339Z,77.96
2022-11-06T05:22:45.669Z,77.71
2022-11-06T05:25:48.332Z,77.51
2022-11-06T05:28:50.988Z,77.28
2022-11-06T05:31:53.559Z,76.98
2022-11-06T05:34:56.241Z,77.84
2022-11-06T05:38:01.665Z,77.09
2022-11-06T05:41:04.411Z,77.96
2022-11-06T05:44:07.003Z,77.68
2022-11-06T05:47:09.699Z,77.84
2022-11-06T05:50:12.596Z,77.67
2022-11-06T05:53:16.739Z,77.58
2022-11-06T05:56:19.473Z,77.86
2022-11-06T05:59:22.040Z,76.49
2022-11-06T06:02:24.834Z,77.08
2022-11-06T06:05:27.509Z,77.82
2022-11-06T06:08:31.638Z,78.20
2022-11-06T06:11:34.392Z,78.48
2022-11-06T06:14:37.076Z,78.57
2022-11-06T06:17:39.776Z,78.15
2022-11-06T06:20:42.353Z,78.20
2022-11-06T06:23:46.453Z,78.31
2022-11-06T06:26:49.013Z,78.13
2022-11-06T06:29:51.712Z,77.50
2022-11-06T06:32:54.589Z,78.07
2022-11-06T06:35:57.296Z,78.53
2022-11-06T06:39:01.184Z,78.19
2022-11-06T06:42:03.998Z,77.51
2022-11-06T06:45:07.268Z,77.90
2022-11-06T06:48:10.549Z,77.99
2022-11-06T06:51:13.456Z,78.26
2022-11-06T06:54:17.368Z,78.37
2022-11-06T06:57:20.086Z,77.31
2022-11-06T07:00:22.772Z,77.65
2022-11-06T07:03:25.461Z,77.19
2022-11-06T07:06:28.206Z,76.34
2022-11-06T07:09:33.132Z,74.70
2022-11-06T07:12:35.845Z,73.05
2022-11-06T07:15:38.600Z,73.26
2022-11-06T07:18:41.896Z,73.48
2022-11-06T07:21:44.463Z,73.60
2022-11-06T07:24:48.517Z,73.15
2022-11-06T07:27:51.087Z,73.22
2022-11-06T07:30:53.916Z,73.46
2022-11-06T07:33:56.493Z,73.88
2022-11-06T07:37:00.432Z,73.11
2022-11-06T07:40:08.866Z,72.87
2022-11-06T07:43:12.370Z,73.55
2022-11-06T07:46:15.122Z,72.08
2022-11-06T07:49:17.679Z,73.29
2022-11-06T07:52:20.378Z,71.19
2022-11-06T07:55:24.787Z,72.65
2022-11-06T07:58:27.465Z,71.92
2022-11-06T08:01:30.276Z,71.96
2022-11-06T08:04:32.926Z,71.70
2022-11-06T08:07:35.678Z,70.49
2022-11-06T08:10:40.960Z,71.23
2022-11-06T08:13:44.215Z,71.68
2022-11-06T08:16:46.824Z,70.94
2022-11-06T08:19:49.504Z,71.83
2022-11-06T08:22:52.279Z,71.58
2022-11-06T08:25:57.608Z,72.07
2022-11-06T08:29:00.740Z,70.75
2022-11-06T08:32:03.607Z,69.61
2022-11-06T08:35:07.585Z,70.66
2022-11-06T08:38:10.336Z,70.70
2022-11-06T08:41:14.632Z,71.42
2022-11-06T08:44:17.343Z,70.80
2022-11-06T08:47:19.998Z,69.51
2022-11-06T08:50:22.674Z,68.68
2022-11-06T08:53:25.617Z,69.81
2022-11-06T08:56:29.625Z,69.53
2022-11-06T08:59:33.184Z,70.47
2022-11-06T09:02:36.492Z,68.43
2022-11-06T09:05:41.592Z,67.83
2022-11-06T09:08:44.352Z,68.39
2022-11-06T09:11:48.256Z,66.77
2022-11-06T09:14:50.991Z,67.82
2022-11-06T09:17:53.743Z,67.89
2022-11-06T09:20:57.034Z,67.71
2022-11-06T09:23:59.614Z,66.40
2022-11-06T09:27:05.656Z,67.12
2022-11-06T09:30:11.116Z,66.57
2022-11-06T09:33:14.939Z,65.54
2022-11-06T09:36:17.915Z,64.63
2022-11-06T09:39:24.359Z,63.02
2022-11-06T09:42:39.848Z,62.91
2022-11-06T09:45:43.450Z,60.13
2022-11-06T09:48:50.600Z,61.43
2022-11-06T09:51:59.885Z,59.73
2022-11-06T09:55:07.549Z,58.50
2022-11-06T09:58:16.217Z,56.79
2022-11-06T10:01:27.136Z,56.66
2022-11-06T10:04:41.280Z,54.58
2022-11-06T10:07:46.005Z,54.16
2022-11-06T10:10:58.194Z,54.42
2022-11-06T10:14:13.447Z,53.24
2022-11-06T10:17:27.722Z,54.18
2022-11-06T10:20:34.589Z,52.94
2022-11-06T10:23:45.278Z,52.71
2022-11-06T10:26:55.418Z,52.86
2022-11-06T10:30:11.831Z,53.07
2022-11-06T10:33:27.791Z,51.96
2022-11-06T10:36:37.362Z,50.50
2022-11-06T10:39:41.172Z,51.00
2022-11-06T10:42:44.900Z,49.83
2022-11-06T10:45:53.598Z,51.18
2022-11-06T10:48:59.831Z,49.79
2022-11-06T10:52:22.471Z,49.59
2022-11-06T10:56:09.637Z,49.98
2022-11-06T10:59:13.431Z,50.16
2022-11-06T11:02:26.104Z,50.08
2022-11-06T11:05:38.199Z,50.18
2022-11-06T11:08:43.288Z,49.24
2022-11-06T11:11:50.502Z,48.82
2022-11-06T11:15:12.047Z,48.74
2022-11-06T11:18:23.109Z,49.53
2022-11-06T11:21:28.050Z,49.90
2022-11-06T11:24:30.931Z,48.49
2022-11-06T11:27:38.082Z,49.18
2022-11-06T11:30:40.819Z,48.72
2022-11-06T11:33:52.084Z,48.69
2022-11-06T11:36:58.704Z,49.81
2022-11-06T11:40:20.894Z,50.95
2022-11-06T11:43:26.455Z,49.61
2022-11-06T11:46:28.994Z,50.43
2022-11-06T11:49:34.826Z,49.76
2022-11-06T11:52:42.614Z,50.49
2022-11-06T11:55:49.255Z,52.25
2022-11-06T11:58:54.563Z,52.88
2022-11-06T12:02:01.987Z,52.54
2022-11-06T12:05:12.392Z,52.80
2022-11-06T12:08:24.567Z,53.28
2022-11-06T12:11:31.676Z,52.00
2022-11-06T12:14:37.317Z,53.45
2022-11-06T12:17:41.706Z,54.11
2022-11-06T12:20:53.152Z,54.92
2022-11-06T12:23:59.001Z,55.05
2022-11-06T12:27:05.762Z,55.37
2022-11-06T12:30:13.027Z,55.87
2022-11-06T12:33:19.392Z,54.25
2022-11-06T12:36:29.967Z,55.43
2022-11-06T12:39:35.861Z,55.63
2022-11-06T12:42:40.844Z,55.71
2022-11-06T12:46:09.467Z,54.48
2022-11-06T12:49:40.598Z,57.34
2022-11-06T12:53:06.219Z,55.50
2022-11-06T12:56:18.100Z,56.55
2022-11-06T12:59:35.301Z,55.88
2022-11-06T13:03:14.498Z,56.74
2022-11-06T13:06:26.825Z,56.90
2022-11-06T13:09:38.077Z,56.26
2022-11-06T13:12:48.578Z,56.19
2022-11-06T13:15:59.259Z,57.07
2022-11-06T13:19:08.519Z,56.46
2022-11-06T13:22:22.404Z,56.99
2022-11-06T13:25:38.284Z,57.17
2022-11-06T13:28:46.002Z,57.52
2022-11-06T13:31:53.212Z,56.75
2022-11-06T13:34:57.525Z,57.18
2022-11-06T13:38:02.445Z,57.24
2022-11-06T13:41:14.821Z,57.64
2022-11-06T13:44:20.014Z,57.39
2022-11-06T13:47:28.082Z,57.05
2022-11-06T13:50:36.854Z,57.25
2022-11-06T13:53:47.383Z,57.94
2022-11-06T13:57:21.806Z,57.12
2022-11-06T14:00:26.101Z,56.84
2022-11-06T14:03:49.086Z,57.25
2022-11-06T14:06:55.810Z,58.23
2022-11-06T14:09:59.178Z,58.17
2022-11-06T14:13:05.046Z,58.33
2022-11-06T14:16:25.266Z,58.26
2022-11-06T14:19:29.786Z,57.35
2022-11-06T14:22:36.392Z,58.25
2022-11-06T14:25:47.348Z,57.77
2022-11-06T14:28:51.313Z,58.14
2022-11-06T14:32:01.742Z,57.42
2022-11-06T14:35:50.720Z,57.87
2022-11-06T14:38:53.935Z,59.37
2022-11-06T14:41:59.290Z,58.13
2022-11-06T14:45:11.924Z,57.99
2022-11-06T14:48:30.393Z,58.73
2022-11-06T14:51:33.077Z,59.38
2022-11-06T14:54:40.376Z,58.16
2022-11-06T14:57:47.545Z,58.21
2022-11-06T15:00:55.010Z,57.90
2022-11-06T15:03:59.816Z,59.09
2022-11-06T15:07:08.851Z,59.24
2022-11-06T15:10:51.107Z,59.33
2022-11-06T15:13:53.990Z,58.31
2022-11-06T15:17:03.936Z,59.04
2022-11-06T15:20:16.121Z,59.98
2022-11-06T15:23:24.213Z,59.19
2022-11-06T15:26:34.388Z,60.10
2022-11-06T15:29:41.977Z,60.39
2022-11-06T15:32:47.099Z,60.82
2022-11-06T15:35:50.897Z,61.19
2022-11-06T15:38:53.690Z,61.73
2022-11-06T15:41:58.117Z,61.80
2022-11-06T15:45:09.723Z,61.69
2022-11-06T15:48:20.677Z,61.81
2022-11-06T15:51:25.964Z,62.52
2022-11-06T15:54:36.011Z,62.01
2022-11-06T15:57:40.406Z,63.36
2022-11-06T16:00:43.503Z,63.69
2022-11-06T16:03:50.468Z,62.07
2022-11-06T16:06:54.906Z,62.88
2022-11-06T16:09:57.800Z,62.13
2022-11-06T16:13:03.988Z,63.38
2022-11-06T16:16:35.945Z,62.07
2022-11-06T16:19:41.001Z,63.06
2022-11-06T16:22:43.969Z,62.41
2022-11-06T16:25:46.811Z,62.22
2022-11-06T16:28:53.441Z,62.38
2022-11-06T16:32:01.292Z,62.35
2022-11-06T16:35:04.518Z,63.86
2022-11-06T16:38:42.469Z,63.51
2022-11-06T16:42:01.369Z,62.42
2022-11-06T16:45:21.565Z,63.29
2022-11-06T16:48:32.278Z,63.58
2022-11-06T16:51:35.595Z,63.76
2022-11-06T16:54:38.596Z,64.46
2022-11-06T16:57:46.086Z,63.81
2022-11-06T17:00:58.821Z,64.39
2022-11-06T17:04:04.086Z,63.87
2022-11-06T17:07:06.649Z,64.29
2022-11-06T17:10:40.284Z,63.75
2022-11-06T17:13:45.295Z,64.65
2022-11-06T17:16:51.248Z,64.31
2022-11-06T17:19:54.151Z,64.61
2022-11-06T17:22:56.876Z,64.27
2022-11-06T17:26:03.912Z,64.26
2022-11-06T17:29:06.465Z,63.80
2022-11-06T17:32:10.537Z,63.66
2022-11-06T17:35:13.099Z,63.39
2022-11-06T17:38:16.552Z,64.27
2022-11-06T17:41:29.929Z,64.33
2022-11-06T17:44:33.037Z,64.33
2022-11-06T17:47:37.010Z,63.55
2022-11-06T17:50:53.739Z,64.64
2022-11-06T17:53:56.291Z,64.70
2022-11-06T17:57:00.441Z,65.11
2022-11-06T18:00:03.113Z,65.11
2022-11-06T18:03:07.390Z,65.04
2022-11-06T18:06:11.024Z,64.92
2022-11-06T18:09:14.726Z,64.21
2022-11-06T18:12:19.471Z,64.43
2022-11-06T18:15:22.062Z,64.28
2022-11-06T18:18:26.075Z,63.22
2022-11-06T18:21:28.691Z,64.13
2022-11-06T18:24:31.500Z,64.41
2022-11-06T18:27:34.062Z,63.89
2022-11-06T18:30:38.477Z,64.75
2022-11-06T18:33:42.587Z,64.08
2022-11-06T18:36:45.209Z,63.99
2022-11-06T18:39:47.915Z,64.17
2022-11-06T18:42:50.677Z,64.21
2022-11-06T18:45:53.321Z,64.50
2022-11-06T18:48:58.215Z,63.84
2022-11-06T18:52:00.945Z,64.16
2022-11-06T18:55:06.401Z,64.68
2022-11-06T18:58:09.260Z,63.81
2022-11-06T19:01:13.722Z,64.08
2022-11-06T19:04:17.993Z,65.19
2022-11-06T19:07:20.717Z,65.56
2022-11-06T19:10:23.438Z,65.12
2022-11-06T19:13:26.167Z,65.19
2022-11-06T19:16:28.732Z,64.60
2022-11-06T19:19:32.804Z,64.65
2022-11-06T19:22:35.409Z,64.85
2022-11-06T19:25:41.155Z,65.09
2022-11-06T19:28:45.026Z,65.30
2022-11-06T19:31:47.605Z,64.61
2022-11-06T19:34:51.798Z,64.32
2022-11-06T19:37:54.375Z,64.99
2022-11-06T19:40:59.086Z,66.10
2022-11-06T19:44:01.692Z,65.65
2022-11-06T19:47:04.456Z,64.97
2022-11-06T19:50:09.028Z,65.28
2022-11-06T19:53:12.145Z,67.01
2022-11-06T19:56:16.702Z,66.11
2022-11-06T19:59:19.526Z,66.31
2022-11-06T20:02:22.268Z,65.98
2022-11-06T20:05:26.542Z,67.29
2022-11-06T20:08:29.080Z,66.43
2022-11-06T20:11:31.853Z,66.97
2022-11-06T20:14:34.458Z,66.86
2022-11-06T20:17:37.212Z,67.06
2022-11-06T20:20:41.258Z,66.40
2022-11-06T20:23:44.047Z,66.36
2022-11-06T20:26:46.676Z,66.39
2022-11-06T20:29:49.426Z,66.24
2022-11-06T20:32:52.023Z,68.25
2022-11-06T20:35:56.235Z,68.06
2022-11-06T20:39:01.142Z,67.19
2022-11-06T20:42:03.928Z,67.65
2022-11-06T20:45:08.019Z,68.04
2022-11-06T20:48:10.700Z,67.40
2022-11-06T20:51:17.692Z,67.09
2022-11-06T20:54:20.404Z,66.96
2022-11-06T20:57:23.034Z,68.27
2022-11-06T21:00:25.738Z,68.14
2022-11-06T21:03:28.299Z,67.62
2022-11-06T21:06:33.888Z,67.79
2022-11-06T21:09:36.674Z,67.58
2022-11-06T21:12:39.427Z,68.97
2022-11-06T21:15:42.007Z,68.54
2022-11-06T21:18:45.405Z,67.75
2022-11-06T21:21:49.328Z,68.34
2022-11-06T21:24:52.055Z,68.65
2022-11-06T21:27:54.998Z,68.82
2022-11-06T21:30:57.640Z,67.75
2022-11-06T21:34:02.204Z,69.71
2022-11-06T21:37:06.570Z,68.64
2022-11-06T21:40:17.119Z,68.40
2022-11-06T21:43:19.947Z,68.92
2022-11-06T21:46:23.181Z,68.12
2022-11-06T21:49:25.896Z,68.60
2022-11-06T21:52:50.053Z,68.37
2022-11-06T21:56:02.577Z,68.14
2022-11-06T21:59:06.933Z,67.76
2022-11-06T22:02:10.376Z,68.31
2022-11-06T22:05:13.268Z,68.85
2022-11-06T22:08:17.442Z,68.97
2022-11-06T22:11:21.693Z,68.92
2022-11-06T22:14:24.308Z,69.98
2022-11-06T22:17:26.995Z,69.44
2022-11-06T22:20:29.724Z,68.94
2022-11-06T22:23:33.778Z,68.55
2022-11-06T22:26:37.801Z,68.74
2022-11-06T22:29:40.537Z,69.63
2022-11-06T22:32:43.456Z,68.51
2022-11-06T22:35:46.398Z,70.05
2022-11-06T22:38:51.550Z,68.79
2022-11-06T22:41:54.160Z,69.52
2022-11-06T22:44:57.219Z,69.27
2022-11-06T22:48:00.147Z,69.89
2022-11-06T22:51:04.259Z,69.41
2022-11-06T22:54:08.385Z,69.11
2022-11-06T22:57:11.771Z,69.32
2022-11-06T23:00:15.632Z,69.35
2022-11-06T23:03:19.019Z,70.00
2022-11-06T23:06:21.722Z,69.92
2022-11-06T23:09:25.804Z,70.13
2022-11-06T23:12:30.825Z,68.50
2022-11-06T23:15:34.170Z,68.76
2022-11-06T23:18:37.104Z,68.47
2022-11-06T23:21:40.156Z,68.89
2022-11-06T23:24:45.167Z,68.12
2022-11-06T23:27:50.493Z,68.64
2022-11-06T23:30:53.182Z,68.09
2022-11-06T23:33:55.949Z,68.49
2022-11-06T23:36:58.699Z,69.41
2022-11-06T23:40:03.299Z,69.08
2022-11-06T23:43:06.015Z,68.81
2022-11-06T23:46:07.601Z,67.86
2022-11-06T23:49:10.296Z,68.04
2022-11-06T23:52:12.885Z,69.33
2022-11-06T23:55:16.986Z,69.19
2022-11-06T23:58:19.559Z,69.17
